sensor_id;sensor_type;location;lat;lon;timestamp;P1;durP1;ratioP1;P2;durP2;ratioP2
25758;SDS011;13604;52.496;13.456;2022-12-28T00:02:04;9.95;;;5.03;;
25758;SDS011;13604;52.496;13.456;2022-12-28T00:04:30;10.27;;;4.88;;
25758;SDS011;13604;52.496;13.456;2022-12-28T00:06:55;15.45;;;4.40;;
25758;SDS011;13604;52.496;13.456;2022-12-28T00:09:20;10.05;;;4.38;;
25758;SDS011;13604;52.496;13.456;2022-12-28T00:11:46;10.35;;;4.90;;
25758;SDS011;13604;52.496;13.456;2022-12-28T00:14:11;12.27;;;4.28;;
25758;SDS011;13604;52.496;13.456;2022-12-28T00:16:37;15.23;;;5.00;;
25758;SDS011;13604;52.496;13.456;2022-12-28T00:19:05;9.52;;;4.10;;
25758;SDS011;13604;52.496;13.456;2022-12-28T00:21:34;11.63;;;5.07;;
25758;SDS011;13604;52.496;13.456;2022-12-28T00:24:00;10.68;;;4.50;;
25758;SDS011;13604;52.496;13.456;2022-12-28T00:26:29;11.13;;;3.50;;
25758;SDS011;13604;52.496;13.456;2022-12-28T00:28:56;10.88;;;3.72;;
25758;SDS011;13604;52.496;13.456;2022-12-28T00:31:22;10.10;;;3.50;;
25758;SDS011;13604;52.496;13.456;2022-12-28T00:33:47;11.10;;;3.95;;
25758;SDS011;13604;52.496;13.456;2022-12-28T00:36:13;12.00;;;4.20;;
25758;SDS011;13604;52.496;13.456;2022-12-28T00:38:39;13.30;;;4.35;;
25758;SDS011;13604;52.496;13.456;2022-12-28T00:41:05;9.82;;;4.15;;
25758;SDS011;13604;52.496;13.456;2022-12-28T00:43:31;8.10;;;3.65;;
25758;SDS011;13604;52.496;13.456;2022-12-28T00:45:57;8.60;;;3.75;;
25758;SDS011;13604;52.496;13.456;2022-12-28T00:48:22;11.43;;;4.10;;
25758;SDS011;13604;52.496;13.456;2022-12-28T00:50:48;12.00;;;3.63;;
25758;SDS011;13604;52.496;13.456;2022-12-28T00:53:13;11.07;;;3.58;;
25758;SDS011;13604;52.496;13.456;2022-12-28T00:55:39;11.77;;;3.78;;
25758;SDS011;13604;52.496;13.456;2022-12-28T00:58:05;13.30;;;3.63;;
25758;SDS011;13604;52.496;13.456;2022-12-28T01:00:32;11.80;;;3.90;;
25758;SDS011;13604;52.496;13.456;2022-12-28T01:02:58;5.47;;;3.30;;
25758;SDS011;13604;52.496;13.456;2022-12-28T01:05:24;12.48;;;4.05;;
25758;SDS011;13604;52.496;13.456;2022-12-28T01:07:49;11.77;;;3.63;;
25758;SDS011;13604;52.496;13.456;2022-12-28T01:10:15;8.50;;;3.50;;
25758;SDS011;13604;52.496;13.456;2022-12-28T01:12:40;15.00;;;4.07;;
25758;SDS011;13604;52.496;13.456;2022-12-28T01:15:07;9.27;;;3.67;;
25758;SDS011;13604;52.496;13.456;2022-12-28T01:17:34;11.52;;;3.80;;
25758;SDS011;13604;52.496;13.456;2022-12-28T01:19:59;8.02;;;3.03;;
25758;SDS011;13604;52.496;13.456;2022-12-28T01:22:25;11.73;;;3.42;;
25758;SDS011;13604;52.496;13.456;2022-12-28T01:24:51;10.68;;;3.78;;
25758;SDS011;13604;52.496;13.456;2022-12-28T01:27:16;11.15;;;3.95;;
25758;SDS011;13604;52.496;13.456;2022-12-28T01:29:42;14.90;;;3.78;;
25758;SDS011;13604;52.496;13.456;2022-12-28T01:32:07;11.07;;;3.70;;
25758;SDS011;13604;52.496;13.456;2022-12-28T01:34:33;11.73;;;3.42;;
25758;SDS011;13604;52.496;13.456;2022-12-28T01:36:58;7.50;;;3.47;;
25758;SDS011;13604;52.496;13.456;2022-12-28T01:39:24;6.57;;;3.13;;
25758;SDS011;13604;52.496;13.456;2022-12-28T01:41:49;11.88;;;3.88;;
25758;SDS011;13604;52.496;13.456;2022-12-28T01:52:01;12.52;;;3.85;;
25758;SDS011;13604;52.496;13.456;2022-12-28T01:54:34;6.55;;;3.42;;
25758;SDS011;13604;52.496;13.456;2022-12-28T01:57:05;10.25;;;4.10;;
25758;SDS011;13604;52.496;13.456;2022-12-28T01:59:32;11.48;;;3.55;;
25758;SDS011;13604;52.496;13.456;2022-12-28T02:02:01;12.50;;;4.65;;
25758;SDS011;13604;52.496;13.456;2022-12-28T02:04:27;10.90;;;3.85;;
25758;SDS011;13604;52.496;13.456;2022-12-28T02:06:53;14.52;;;3.55;;
25758;SDS011;13604;52.496;13.456;2022-12-28T02:09:19;7.75;;;3.83;;
25758;SDS011;13604;52.496;13.456;2022-12-28T02:11:50;14.27;;;4.22;;
25758;SDS011;13604;52.496;13.456;2022-12-28T02:14:17;12.57;;;4.10;;
25758;SDS011;13604;52.496;13.456;2022-12-28T02:16:44;12.15;;;4.38;;
25758;SDS011;13604;52.496;13.456;2022-12-28T02:19:11;11.38;;;4.03;;
25758;SDS011;13604;52.496;13.456;2022-12-28T02:21:44;10.13;;;4.10;;
25758;SDS011;13604;52.496;13.456;2022-12-28T02:24:37;8.13;;;4.50;;
25758;SDS011;13604;52.496;13.456;2022-12-28T02:27:39;10.68;;;4.10;;
25758;SDS011;13604;52.496;13.456;2022-12-28T02:30:18;9.50;;;4.15;;
25758;SDS011;13604;52.496;13.456;2022-12-28T02:32:54;10.63;;;4.30;;
25758;SDS011;13604;52.496;13.456;2022-12-28T02:35:27;8.75;;;3.55;;
25758;SDS011;13604;52.496;13.456;2022-12-28T02:38:13;10.75;;;4.28;;
25758;SDS011;13604;52.496;13.456;2022-12-28T02:40:46;15.27;;;4.88;;
25758;SDS011;13604;52.496;13.456;2022-12-28T02:43:15;11.05;;;4.20;;
25758;SDS011;13604;52.496;13.456;2022-12-28T02:45:43;10.60;;;4.28;;
25758;SDS011;13604;52.496;13.456;2022-12-28T02:51:33;10.65;;;4.38;;
25758;SDS011;13604;52.496;13.456;2022-12-28T03:00:08;8.30;;;4.07;;
25758;SDS011;13604;52.496;13.456;2022-12-28T03:05:23;22.33;;;5.40;;
25758;SDS011;13604;52.496;13.456;2022-12-28T03:08:17;8.95;;;4.85;;
25758;SDS011;13604;52.496;13.456;2022-12-28T03:13:14;14.07;;;4.80;;
25758;SDS011;13604;52.496;13.456;2022-12-28T03:16:12;9.93;;;4.55;;
25758;SDS011;13604;52.496;13.456;2022-12-28T03:18:42;11.90;;;5.30;;
25758;SDS011;13604;52.496;13.456;2022-12-28T03:21:29;11.15;;;4.72;;
25758;SDS011;13604;52.496;13.456;2022-12-28T03:24:15;16.45;;;4.63;;
25758;SDS011;13604;52.496;13.456;2022-12-28T03:27:02;10.07;;;4.60;;
25758;SDS011;13604;52.496;13.456;2022-12-28T03:29:57;12.32;;;4.65;;
25758;SDS011;13604;52.496;13.456;2022-12-28T03:32:44;15.25;;;4.45;;
25758;SDS011;13604;52.496;13.456;2022-12-28T03:35:11;12.52;;;4.32;;
25758;SDS011;13604;52.496;13.456;2022-12-28T03:37:39;9.82;;;4.47;;
25758;SDS011;13604;52.496;13.456;2022-12-28T03:40:13;10.05;;;4.18;;
25758;SDS011;13604;52.496;13.456;2022-12-28T03:42:50;10.95;;;4.53;;
25758;SDS011;13604;52.496;13.456;2022-12-28T03:45:40;8.48;;;4.05;;
25758;SDS011;13604;52.496;13.456;2022-12-28T03:48:14;13.68;;;4.82;;
25758;SDS011;13604;52.496;13.456;2022-12-28T03:50:42;9.65;;;4.45;;
25758;SDS011;13604;52.496;13.456;2022-12-28T03:53:09;8.90;;;4.13;;
25758;SDS011;13604;52.496;13.456;2022-12-28T03:55:35;8.95;;;4.00;;
25758;SDS011;13604;52.496;13.456;2022-12-28T03:58:02;8.43;;;4.00;;
25758;SDS011;13604;52.496;13.456;2022-12-28T04:00:28;7.63;;;3.72;;
25758;SDS011;13604;52.496;13.456;2022-12-28T04:02:54;11.70;;;4.45;;
25758;SDS011;13604;52.496;13.456;2022-12-28T04:05:19;12.00;;;4.30;;
25758;SDS011;13604;52.496;13.456;2022-12-28T04:07:45;7.20;;;4.18;;
25758;SDS011;13604;52.496;13.456;2022-12-28T04:10:10;10.73;;;3.90;;
25758;SDS011;13604;52.496;13.456;2022-12-28T04:12:36;7.65;;;3.50;;
25758;SDS011;13604;52.496;13.456;2022-12-28T04:15:01;13.68;;;3.80;;
25758;SDS011;13604;52.496;13.456;2022-12-28T04:17:29;10.73;;;3.85;;
25758;SDS011;13604;52.496;13.456;2022-12-28T04:19:54;11.13;;;3.65;;
25758;SDS011;13604;52.496;13.456;2022-12-28T04:22:20;10.80;;;3.45;;
25758;SDS011;13604;52.496;13.456;2022-12-28T04:24:45;12.88;;;4.25;;
25758;SDS011;13604;52.496;13.456;2022-12-28T04:27:10;14.90;;;4.13;;
25758;SDS011;13604;52.496;13.456;2022-12-28T04:29:36;8.68;;;3.55;;
25758;SDS011;13604;52.496;13.456;2022-12-28T04:32:01;10.05;;;3.47;;
25758;SDS011;13604;52.496;13.456;2022-12-28T04:34:26;10.45;;;3.50;;
25758;SDS011;13604;52.496;13.456;2022-12-28T04:36:52;6.65;;;3.42;;
25758;SDS011;13604;52.496;13.456;2022-12-28T04:39:17;10.88;;;3.42;;
25758;SDS011;13604;52.496;13.456;2022-12-28T04:41:42;8.05;;;3.00;;
25758;SDS011;13604;52.496;13.456;2022-12-28T04:44:08;6.93;;;2.95;;
25758;SDS011;13604;52.496;13.456;2022-12-28T04:46:33;17.52;;;4.60;;
25758;SDS011;13604;52.496;13.456;2022-12-28T04:48:59;6.63;;;3.30;;
25758;SDS011;13604;52.496;13.456;2022-12-28T04:51:25;7.30;;;3.08;;
25758;SDS011;13604;52.496;13.456;2022-12-28T04:53:52;13.55;;;3.15;;
25758;SDS011;13604;52.496;13.456;2022-12-28T04:56:18;11.60;;;3.97;;
25758;SDS011;13604;52.496;13.456;2022-12-28T04:58:45;11.65;;;3.13;;
25758;SDS011;13604;52.496;13.456;2022-12-28T05:01:12;8.57;;;2.80;;
25758;SDS011;13604;52.496;13.456;2022-12-28T05:03:40;6.68;;;3.08;;
25758;SDS011;13604;52.496;13.456;2022-12-28T05:06:07;10.70;;;3.13;;
25758;SDS011;13604;52.496;13.456;2022-12-28T05:08:35;10.52;;;2.78;;
25758;SDS011;13604;52.496;13.456;2022-12-28T05:11:03;15.40;;;3.28;;
25758;SDS011;13604;52.496;13.456;2022-12-28T05:13:29;6.65;;;2.35;;
25758;SDS011;13604;52.496;13.456;2022-12-28T05:15:59;5.38;;;2.60;;
25758;SDS011;13604;52.496;13.456;2022-12-28T05:18:28;8.02;;;2.90;;
25758;SDS011;13604;52.496;13.456;2022-12-28T05:21:10;10.00;;;2.90;;
25758;SDS011;13604;52.496;13.456;2022-12-28T05:23:37;6.10;;;2.35;;
25758;SDS011;13604;52.496;13.456;2022-12-28T05:26:03;8.30;;;2.88;;
25758;SDS011;13604;52.496;13.456;2022-12-28T05:28:30;9.13;;;2.83;;
25758;SDS011;13604;52.496;13.456;2022-12-28T05:30:59;8.45;;;2.65;;
25758;SDS011;13604;52.496;13.456;2022-12-28T05:33:26;7.95;;;2.78;;
25758;SDS011;13604;52.496;13.456;2022-12-28T05:35:53;5.28;;;2.40;;
25758;SDS011;13604;52.496;13.456;2022-12-28T05:38:19;7.50;;;2.90;;
25758;SDS011;13604;52.496;13.456;2022-12-28T05:40:44;7.80;;;2.88;;
25758;SDS011;13604;52.496;13.456;2022-12-28T05:43:09;9.82;;;3.08;;
25758;SDS011;13604;52.496;13.456;2022-12-28T05:45:35;5.97;;;2.30;;
25758;SDS011;13604;52.496;13.456;2022-12-28T05:48:00;6.05;;;3.28;;
25758;SDS011;13604;52.496;13.456;2022-12-28T05:50:25;9.43;;;3.28;;
25758;SDS011;13604;52.496;13.456;2022-12-28T05:52:50;10.13;;;2.70;;
25758;SDS011;13604;52.496;13.456;2022-12-28T05:55:16;5.07;;;2.50;;
25758;SDS011;13604;52.496;13.456;2022-12-28T05:57:41;6.15;;;2.25;;
25758;SDS011;13604;52.496;13.456;2022-12-28T06:00:06;8.68;;;2.47;;
25758;SDS011;13604;52.496;13.456;2022-12-28T06:02:32;6.85;;;2.60;;
25758;SDS011;13604;52.496;13.456;2022-12-28T06:04:57;7.50;;;2.70;;
25758;SDS011;13604;52.496;13.456;2022-12-28T06:07:23;8.10;;;2.55;;
25758;SDS011;13604;52.496;13.456;2022-12-28T06:09:49;6.80;;;2.45;;
25758;SDS011;13604;52.496;13.456;2022-12-28T06:12:14;5.85;;;2.53;;
25758;SDS011;13604;52.496;13.456;2022-12-28T06:14:39;6.47;;;2.25;;
25758;SDS011;13604;52.496;13.456;2022-12-28T06:17:05;6.20;;;2.35;;
25758;SDS011;13604;52.496;13.456;2022-12-28T06:19:30;8.52;;;2.63;;
25758;SDS011;13604;52.496;13.456;2022-12-28T06:21:55;7.70;;;2.28;;
25758;SDS011;13604;52.496;13.456;2022-12-28T06:24:21;11.43;;;2.40;;
25758;SDS011;13604;52.496;13.456;2022-12-28T06:26:46;9.95;;;3.00;;
25758;SDS011;13604;52.496;13.456;2022-12-28T06:29:12;7.93;;;2.42;;
25758;SDS011;13604;52.496;13.456;2022-12-28T06:31:38;14.07;;;2.42;;
25758;SDS011;13604;52.496;13.456;2022-12-28T06:34:05;5.40;;;2.47;;
25758;SDS011;13604;52.496;13.456;2022-12-28T06:36:33;6.80;;;2.35;;
25758;SDS011;13604;52.496;13.456;2022-12-28T06:39:04;10.02;;;2.75;;
25758;SDS011;13604;52.496;13.456;2022-12-28T06:41:30;10.77;;;2.47;;
25758;SDS011;13604;52.496;13.456;2022-12-28T06:43:56;10.65;;;2.33;;
25758;SDS011;13604;52.496;13.456;2022-12-28T06:46:23;4.88;;;2.67;;
25758;SDS011;13604;52.496;13.456;2022-12-28T06:48:50;9.75;;;2.85;;
25758;SDS011;13604;52.496;13.456;2022-12-28T06:53:48;9.50;;;2.58;;
25758;SDS011;13604;52.496;13.456;2022-12-28T06:56:17;8.38;;;3.03;;
25758;SDS011;13604;52.496;13.456;2022-12-28T06:58:45;9.88;;;2.97;;
25758;SDS011;13604;52.496;13.456;2022-12-28T07:01:19;10.50;;;3.15;;
25758;SDS011;13604;52.496;13.456;2022-12-28T07:03:47;10.73;;;3.25;;
25758;SDS011;13604;52.496;13.456;2022-12-28T07:06:15;11.05;;;3.33;;
25758;SDS011;13604;52.496;13.456;2022-12-28T07:08:41;16.23;;;3.63;;
25758;SDS011;13604;52.496;13.456;2022-12-28T07:11:08;7.55;;;3.33;;
25758;SDS011;13604;52.496;13.456;2022-12-28T07:13:35;13.00;;;3.13;;
25758;SDS011;13604;52.496;13.456;2022-12-28T07:16:02;10.23;;;3.10;;
25758;SDS011;13604;52.496;13.456;2022-12-28T07:18:29;12.00;;;3.70;;
25758;SDS011;13604;52.496;13.456;2022-12-28T07:21:03;12.43;;;4.63;;
25758;SDS011;13604;52.496;13.456;2022-12-28T07:23:33;7.30;;;2.80;;
25758;SDS011;13604;52.496;13.456;2022-12-28T07:26:41;10.13;;;3.30;;
25758;SDS011;13604;52.496;13.456;2022-12-28T07:28:53;11.18;;;3.13;;
25758;SDS011;13604;52.496;13.456;2022-12-28T07:31:24;15.20;;;3.58;;
25758;SDS011;13604;52.496;13.456;2022-12-28T07:33:52;10.15;;;3.10;;
25758;SDS011;13604;52.496;13.456;2022-12-28T07:36:20;12.10;;;3.80;;
25758;SDS011;13604;52.496;13.456;2022-12-28T07:38:47;15.48;;;3.60;;
25758;SDS011;13604;52.496;13.456;2022-12-28T07:41:14;7.97;;;3.25;;
25758;SDS011;13604;52.496;13.456;2022-12-28T07:43:41;10.05;;;3.33;;
25758;SDS011;13604;52.496;13.456;2022-12-28T07:46:07;8.48;;;3.47;;
25758;SDS011;13604;52.496;13.456;2022-12-28T07:48:37;11.02;;;3.58;;
25758;SDS011;13604;52.496;13.456;2022-12-28T07:51:04;7.43;;;3.95;;
25758;SDS011;13604;52.496;13.456;2022-12-28T07:53:41;10.45;;;3.42;;
25758;SDS011;13604;52.496;13.456;2022-12-28T07:56:07;7.60;;;3.60;;
25758;SDS011;13604;52.496;13.456;2022-12-28T07:58:33;8.10;;;3.35;;
25758;SDS011;13604;52.496;13.456;2022-12-28T08:01:09;9.30;;;3.55;;
25758;SDS011;13604;52.496;13.456;2022-12-28T08:03:36;5.70;;;2.75;;
25758;SDS011;13604;52.496;13.456;2022-12-28T08:06:03;9.40;;;3.53;;
25758;SDS011;13604;52.496;13.456;2022-12-28T08:08:37;7.65;;;3.25;;
25758;SDS011;13604;52.496;13.456;2022-12-28T08:11:04;11.30;;;3.40;;
25758;SDS011;13604;52.496;13.456;2022-12-28T08:13:35;9.57;;;3.53;;
25758;SDS011;13604;52.496;13.456;2022-12-28T08:16:02;8.95;;;3.95;;
25758;SDS011;13604;52.496;13.456;2022-12-28T08:18:28;7.32;;;3.28;;
25758;SDS011;13604;52.496;13.456;2022-12-28T08:20:58;9.65;;;3.47;;
25758;SDS011;13604;52.496;13.456;2022-12-28T08:23:28;9.50;;;4.20;;
25758;SDS011;13604;52.496;13.456;2022-12-28T08:25:54;7.05;;;3.90;;
25758;SDS011;13604;52.496;13.456;2022-12-28T08:28:19;11.45;;;4.03;;
25758;SDS011;13604;52.496;13.456;2022-12-28T08:30:45;10.98;;;3.53;;
25758;SDS011;13604;52.496;13.456;2022-12-28T08:33:10;15.25;;;4.15;;
25758;SDS011;13604;52.496;13.456;2022-12-28T08:35:35;16.15;;;4.20;;
25758;SDS011;13604;52.496;13.456;2022-12-28T08:38:01;7.40;;;3.40;;
25758;SDS011;13604;52.496;13.456;2022-12-28T08:40:26;7.65;;;3.42;;
25758;SDS011;13604;52.496;13.456;2022-12-28T08:43:00;8.27;;;3.15;;
25758;SDS011;13604;52.496;13.456;2022-12-28T08:45:26;12.18;;;3.58;;
25758;SDS011;13604;52.496;13.456;2022-12-28T08:47:52;11.23;;;3.53;;
25758;SDS011;13604;52.496;13.456;2022-12-28T08:50:17;8.00;;;3.08;;
25758;SDS011;13604;52.496;13.456;2022-12-28T08:52:43;5.95;;;3.08;;
25758;SDS011;13604;52.496;13.456;2022-12-28T08:55:09;9.23;;;3.05;;
25758;SDS011;13604;52.496;13.456;2022-12-28T08:57:34;8.55;;;3.63;;
25758;SDS011;13604;52.496;13.456;2022-12-28T08:59:59;9.68;;;2.85;;
25758;SDS011;13604;52.496;13.456;2022-12-28T09:02:25;7.38;;;2.80;;
25758;SDS011;13604;52.496;13.456;2022-12-28T09:04:50;10.48;;;3.22;;
25758;SDS011;13604;52.496;13.456;2022-12-28T09:07:16;9.68;;;3.13;;
25758;SDS011;13604;52.496;13.456;2022-12-28T09:09:41;4.82;;;2.60;;
25758;SDS011;13604;52.496;13.456;2022-12-28T09:12:07;6.20;;;2.75;;
25758;SDS011;13604;52.496;13.456;2022-12-28T09:14:33;9.25;;;3.20;;
25758;SDS011;13604;52.496;13.456;2022-12-28T09:16:58;9.00;;;3.90;;
25758;SDS011;13604;52.496;13.456;2022-12-28T09:19:25;9.25;;;2.72;;
25758;SDS011;13604;52.496;13.456;2022-12-28T09:21:50;10.20;;;3.15;;
25758;SDS011;13604;52.496;13.456;2022-12-28T09:24:17;8.90;;;2.97;;
25758;SDS011;13604;52.496;13.456;2022-12-28T09:26:42;6.43;;;2.92;;
25758;SDS011;13604;52.496;13.456;2022-12-28T09:29:09;5.20;;;2.80;;
25758;SDS011;13604;52.496;13.456;2022-12-28T09:31:36;5.40;;;2.75;;
25758;SDS011;13604;52.496;13.456;2022-12-28T09:34:04;7.22;;;2.50;;
25758;SDS011;13604;52.496;13.456;2022-12-28T09:36:35;9.60;;;3.15;;
25758;SDS011;13604;52.496;13.456;2022-12-28T09:39:06;4.97;;;2.47;;
25758;SDS011;13604;52.496;13.456;2022-12-28T09:41:51;10.20;;;2.78;;
25758;SDS011;13604;52.496;13.456;2022-12-28T09:44:28;5.20;;;2.88;;
25758;SDS011;13604;52.496;13.456;2022-12-28T09:47:15;7.78;;;3.00;;
25758;SDS011;13604;52.496;13.456;2022-12-28T09:50:03;3.80;;;2.60;;
25758;SDS011;13604;52.496;13.456;2022-12-28T09:55:28;6.20;;;3.10;;
25758;SDS011;13604;52.496;13.456;2022-12-28T09:57:55;8.57;;;2.97;;
25758;SDS011;13604;52.496;13.456;2022-12-28T10:00:27;5.43;;;2.70;;
25758;SDS011;13604;52.496;13.456;2022-12-28T10:03:22;10.30;;;2.80;;
25758;SDS011;13604;52.496;13.456;2022-12-28T10:05:51;7.30;;;3.05;;
25758;SDS011;13604;52.496;13.456;2022-12-28T10:08:19;7.13;;;2.90;;
25758;SDS011;13604;52.496;13.456;2022-12-28T10:10:46;5.70;;;3.08;;
25758;SDS011;13604;52.496;13.456;2022-12-28T10:13:24;8.70;;;3.05;;
25758;SDS011;13604;52.496;13.456;2022-12-28T10:15:51;6.25;;;2.92;;
25758;SDS011;13604;52.496;13.456;2022-12-28T10:18:19;9.75;;;3.03;;
25758;SDS011;13604;52.496;13.456;2022-12-28T10:20:49;7.20;;;3.03;;
25758;SDS011;13604;52.496;13.456;2022-12-28T10:23:20;14.07;;;3.63;;
25758;SDS011;13604;52.496;13.456;2022-12-28T10:25:50;5.03;;;2.80;;
25758;SDS011;13604;52.496;13.456;2022-12-28T10:28:17;8.23;;;2.88;;
25758;SDS011;13604;52.496;13.456;2022-12-28T10:30:47;6.90;;;2.70;;
25758;SDS011;13604;52.496;13.456;2022-12-28T10:33:25;6.43;;;2.78;;
25758;SDS011;13604;52.496;13.456;2022-12-28T10:35:51;5.88;;;3.03;;
25758;SDS011;13604;52.496;13.456;2022-12-28T10:38:22;8.00;;;3.10;;
25758;SDS011;13604;52.496;13.456;2022-12-28T10:40:59;8.75;;;3.15;;
25758;SDS011;13604;52.496;13.456;2022-12-28T10:43:31;7.43;;;2.80;;
25758;SDS011;13604;52.496;13.456;2022-12-28T10:45:58;4.38;;;2.60;;
25758;SDS011;13604;52.496;13.456;2022-12-28T10:48:27;5.53;;;3.00;;
25758;SDS011;13604;52.496;13.456;2022-12-28T10:53:44;6.38;;;3.30;;
25758;SDS011;13604;52.496;13.456;2022-12-28T10:58:37;6.10;;;3.00;;
25758;SDS011;13604;52.496;13.456;2022-12-28T11:01:16;5.60;;;3.22;;
25758;SDS011;13604;52.496;13.456;2022-12-28T11:06:22;7.22;;;3.10;;
25758;SDS011;13604;52.496;13.456;2022-12-28T11:08:59;7.18;;;3.40;;
25758;SDS011;13604;52.496;13.456;2022-12-28T11:11:40;5.25;;;2.80;;
25758;SDS011;13604;52.496;13.456;2022-12-28T11:16:38;8.48;;;3.35;;
25758;SDS011;13604;52.496;13.456;2022-12-28T11:19:05;6.15;;;2.97;;
25758;SDS011;13604;52.496;13.456;2022-12-28T11:21:30;3.83;;;2.65;;
25758;SDS011;13604;52.496;13.456;2022-12-28T11:23:57;8.32;;;2.80;;
25758;SDS011;13604;52.496;13.456;2022-12-28T11:26:23;6.60;;;3.40;;
25758;SDS011;13604;52.496;13.456;2022-12-28T11:28:51;6.95;;;2.83;;
25758;SDS011;13604;52.496;13.456;2022-12-28T11:31:41;4.05;;;2.92;;
25758;SDS011;13604;52.496;13.456;2022-12-28T11:34:11;5.63;;;2.92;;
25758;SDS011;13604;52.496;13.456;2022-12-28T11:36:42;5.03;;;2.70;;
25758;SDS011;13604;52.496;13.456;2022-12-28T11:41:48;7.45;;;2.63;;
25758;SDS011;13604;52.496;13.456;2022-12-28T11:44:23;5.40;;;2.65;;
25758;SDS011;13604;52.496;13.456;2022-12-28T11:47:21;9.17;;;2.73;;
25758;SDS011;13604;52.496;13.456;2022-12-28T11:49:55;5.60;;;3.08;;
25758;SDS011;13604;52.496;13.456;2022-12-28T11:53:01;3.85;;;2.78;;
25758;SDS011;13604;52.496;13.456;2022-12-28T11:55:35;5.72;;;3.17;;
25758;SDS011;13604;52.496;13.456;2022-12-28T12:00:52;8.50;;;2.85;;
25758;SDS011;13604;52.496;13.456;2022-12-28T12:03:17;3.83;;;2.55;;
25758;SDS011;13604;52.496;13.456;2022-12-28T12:05:46;5.78;;;2.80;;
25758;SDS011;13604;52.496;13.456;2022-12-28T12:10:47;6.35;;;2.60;;
25758;SDS011;13604;52.496;13.456;2022-12-28T12:13:34;6.18;;;2.67;;
25758;SDS011;13604;52.496;13.456;2022-12-28T12:16:06;4.60;;;2.63;;
25758;SDS011;13604;52.496;13.456;2022-12-28T12:18:59;5.88;;;2.65;;
25758;SDS011;13604;52.496;13.456;2022-12-28T12:21:29;5.05;;;2.63;;
25758;SDS011;13604;52.496;13.456;2022-12-28T12:24:02;6.43;;;2.37;;
25758;SDS011;13604;52.496;13.456;2022-12-28T12:26:38;6.38;;;3.00;;
25758;SDS011;13604;52.496;13.456;2022-12-28T12:29:13;4.25;;;2.45;;
25758;SDS011;13604;52.496;13.456;2022-12-28T12:31:43;4.97;;;1.98;;
25758;SDS011;13604;52.496;13.456;2022-12-28T12:39:21;6.10;;;2.70;;
25758;SDS011;13604;52.496;13.456;2022-12-28T12:44:48;5.40;;;2.65;;
25758;SDS011;13604;52.496;13.456;2022-12-28T12:47:40;4.53;;;2.25;;
25758;SDS011;13604;52.496;13.456;2022-12-28T12:50:22;6.68;;;2.95;;
25758;SDS011;13604;52.496;13.456;2022-12-28T13:04:45;4.60;;;2.40;;
25758;SDS011;13604;52.496;13.456;2022-12-28T13:07:29;4.72;;;2.40;;
25758;SDS011;13604;52.496;13.456;2022-12-28T13:09:57;4.75;;;2.42;;
25758;SDS011;13604;52.496;13.456;2022-12-28T13:12:26;3.20;;;2.15;;
25758;SDS011;13604;52.496;13.456;2022-12-28T13:15:01;4.35;;;2.35;;
25758;SDS011;13604;52.496;13.456;2022-12-28T13:17:28;4.28;;;2.40;;
25758;SDS011;13604;52.496;13.456;2022-12-28T13:20:13;5.10;;;2.35;;
25758;SDS011;13604;52.496;13.456;2022-12-28T13:22:43;6.47;;;2.55;;
25758;SDS011;13604;52.496;13.456;2022-12-28T13:27:55;3.00;;;1.83;;
25758;SDS011;13604;52.496;13.456;2022-12-28T13:30:23;3.75;;;1.98;;
25758;SDS011;13604;52.496;13.456;2022-12-28T13:32:51;4.78;;;2.33;;
25758;SDS011;13604;52.496;13.456;2022-12-28T13:35:29;5.38;;;2.00;;
25758;SDS011;13604;52.496;13.456;2022-12-28T13:38:12;2.88;;;1.90;;
25758;SDS011;13604;52.496;13.456;2022-12-28T13:40:39;5.13;;;2.10;;
25758;SDS011;13604;52.496;13.456;2022-12-28T13:46:09;4.47;;;2.22;;
25758;SDS011;13604;52.496;13.456;2022-12-28T13:48:38;5.55;;;1.95;;
25758;SDS011;13604;52.496;13.456;2022-12-28T13:51:08;5.57;;;2.30;;
25758;SDS011;13604;52.496;13.456;2022-12-28T13:53:39;4.85;;;2.45;;
25758;SDS011;13604;52.496;13.456;2022-12-28T13:56:10;4.85;;;2.15;;
25758;SDS011;13604;52.496;13.456;2022-12-28T13:58:38;6.43;;;2.40;;
25758;SDS011;13604;52.496;13.456;2022-12-28T14:01:12;6.25;;;2.75;;
25758;SDS011;13604;52.496;13.456;2022-12-28T14:03:41;6.95;;;2.53;;
25758;SDS011;13604;52.496;13.456;2022-12-28T14:06:08;5.15;;;2.65;;
25758;SDS011;13604;52.496;13.456;2022-12-28T14:08:35;5.13;;;2.50;;
25758;SDS011;13604;52.496;13.456;2022-12-28T14:11:03;6.05;;;2.90;;
25758;SDS011;13604;52.496;13.456;2022-12-28T14:13:30;4.60;;;2.60;;
25758;SDS011;13604;52.496;13.456;2022-12-28T14:15:57;4.93;;;2.55;;
25758;SDS011;13604;52.496;13.456;2022-12-28T14:18:23;3.95;;;2.65;;
25758;SDS011;13604;52.496;13.456;2022-12-28T14:20:53;4.32;;;2.25;;
25758;SDS011;13604;52.496;13.456;2022-12-28T14:23:24;4.88;;;2.70;;
25758;SDS011;13604;52.496;13.456;2022-12-28T14:25:51;4.25;;;2.10;;
25758;SDS011;13604;52.496;13.456;2022-12-28T14:28:35;6.35;;;2.47;;
25758;SDS011;13604;52.496;13.456;2022-12-28T14:31:04;4.18;;;2.28;;
25758;SDS011;13604;52.496;13.456;2022-12-28T14:33:35;5.30;;;2.78;;
25758;SDS011;13604;52.496;13.456;2022-12-28T14:36:05;6.43;;;2.88;;
25758;SDS011;13604;52.496;13.456;2022-12-28T14:38:45;3.47;;;2.50;;
25758;SDS011;13604;52.496;13.456;2022-12-28T14:41:14;3.80;;;2.58;;
25758;SDS011;13604;52.496;13.456;2022-12-28T14:43:49;8.60;;;3.22;;
25758;SDS011;13604;52.496;13.456;2022-12-28T14:46:35;3.63;;;2.45;;
25758;SDS011;13604;52.496;13.456;2022-12-28T14:49:44;7.70;;;3.00;;
25758;SDS011;13604;52.496;13.456;2022-12-28T14:54:41;3.70;;;2.63;;
25758;SDS011;13604;52.496;13.456;2022-12-28T14:57:50;4.90;;;2.80;;
25758;SDS011;13604;52.496;13.456;2022-12-28T15:02:49;4.57;;;2.58;;
25758;SDS011;13604;52.496;13.456;2022-12-28T15:10:24;5.28;;;3.10;;
25758;SDS011;13604;52.496;13.456;2022-12-28T15:12:50;6.50;;;3.10;;
25758;SDS011;13604;52.496;13.456;2022-12-28T15:15:15;6.88;;;3.22;;
25758;SDS011;13604;52.496;13.456;2022-12-28T15:17:41;10.23;;;3.67;;
25758;SDS011;13604;52.496;13.456;2022-12-28T15:20:06;8.98;;;3.92;;
25758;SDS011;13604;52.496;13.456;2022-12-28T15:22:32;8.15;;;3.40;;
25758;SDS011;13604;52.496;13.456;2022-12-28T15:24:57;8.13;;;3.33;;
25758;SDS011;13604;52.496;13.456;2022-12-28T15:27:22;10.43;;;3.78;;
25758;SDS011;13604;52.496;13.456;2022-12-28T15:29:48;8.23;;;3.60;;
25758;SDS011;13604;52.496;13.456;2022-12-28T15:32:13;10.38;;;3.75;;
25758;SDS011;13604;52.496;13.456;2022-12-28T15:34:38;6.70;;;3.40;;
25758;SDS011;13604;52.496;13.456;2022-12-28T15:37:04;6.72;;;3.10;;
25758;SDS011;13604;52.496;13.456;2022-12-28T15:39:29;7.40;;;3.60;;
25758;SDS011;13604;52.496;13.456;2022-12-28T15:41:54;6.75;;;3.70;;
25758;SDS011;13604;52.496;13.456;2022-12-28T15:44:20;9.32;;;3.50;;
25758;SDS011;13604;52.496;13.456;2022-12-28T15:46:45;7.68;;;3.85;;
25758;SDS011;13604;52.496;13.456;2022-12-28T15:49:13;7.50;;;3.50;;
25758;SDS011;13604;52.496;13.456;2022-12-28T15:51:39;7.55;;;3.63;;
25758;SDS011;13604;52.496;13.456;2022-12-28T15:54:05;6.47;;;3.30;;
25758;SDS011;13604;52.496;13.456;2022-12-28T15:56:32;6.53;;;3.25;;
25758;SDS011;13604;52.496;13.456;2022-12-28T15:58:59;7.15;;;3.78;;
25758;SDS011;13604;52.496;13.456;2022-12-28T16:01:26;7.68;;;3.50;;
25758;SDS011;13604;52.496;13.456;2022-12-28T16:03:54;9.48;;;3.78;;
25758;SDS011;13604;52.496;13.456;2022-12-28T16:06:21;4.82;;;3.03;;
25758;SDS011;13604;52.496;13.456;2022-12-28T16:08:47;7.45;;;2.75;;